createdAt,value
2022-10-22T00:00:59.616Z,18.20
2022-10-22T00:06:05.497Z,19.20
2022-10-22T00:08:33.570Z,18.10
2022-10-22T00:11:09.717Z,16.60
2022-10-22T00:13:37.860Z,16.40
2022-10-22T00:16:06.345Z,15.20
2022-10-22T00:18:35.712Z,14.90
2022-10-22T00:21:04.050Z,16.90
2022-10-22T00:23:31.974Z,15.80
2022-10-22T00:26:00.039Z,15.70
2022-10-22T00:28:27.938Z,15.00
2022-10-22T00:30:57.734Z,14.80
2022-10-22T00:33:27.151Z,15.50
2022-10-22T00:35:55.224Z,16.20
2022-10-22T00:38:23.320Z,15.10
2022-10-22T00:40:51.766Z,15.30
2022-10-22T00:43:20.593Z,14.70
2022-10-22T00:45:48.423Z,15.50
2022-10-22T00:48:23.602Z,15.70
2022-10-22T00:50:59.955Z,15.40
2022-10-22T00:53:44.674Z,14.90
2022-10-22T00:56:12.853Z,16.20
2022-10-22T00:58:52.585Z,15.60
2022-10-22T01:01:25.088Z,15.50
2022-10-22T01:03:53.879Z,15.90
2022-10-22T01:06:26.223Z,16.00
2022-10-22T01:09:09.545Z,15.80
2022-10-22T01:11:49.966Z,16.20
2022-10-22T01:14:21.330Z,16.80
2022-10-22T01:17:08.364Z,16.60
2022-10-22T01:19:48.884Z,16.40
2022-10-22T01:22:23.940Z,17.40
2022-10-22T01:25:10.825Z,15.70
2022-10-22T01:28:00.044Z,16.20
2022-10-22T01:30:28.414Z,15.60
2022-10-22T01:33:02.279Z,15.90
2022-10-22T01:35:36.186Z,14.70
2022-10-22T01:38:09.076Z,15.20
2022-10-22T01:40:38.358Z,14.80
2022-10-22T01:43:08.585Z,15.40
2022-10-22T01:45:41.438Z,14.90
2022-10-22T01:48:47.084Z,16.00
2022-10-22T01:51:15.252Z,16.00
2022-10-22T01:54:32.543Z,16.10
2022-10-22T01:57:42.928Z,14.40
2022-10-22T02:00:14.785Z,15.10
2022-10-22T02:02:55.341Z,15.10
2022-10-22T02:05:28.666Z,15.90
2022-10-22T02:08:02.472Z,15.20
2022-10-22T02:10:30.942Z,16.10
2022-10-22T02:13:01.490Z,15.10
2022-10-22T02:15:33.731Z,15.20
2022-10-22T02:18:03.356Z,15.90
2022-10-22T02:20:37.567Z,14.30
2022-10-22T02:23:05.829Z,13.60
2022-10-22T02:25:41.310Z,13.60
2022-10-22T02:28:32.586Z,14.40
2022-10-22T02:31:13.737Z,12.70
2022-10-22T02:33:48.884Z,14.30
2022-10-22T02:36:18.411Z,13.30
2022-10-22T02:38:49.254Z,13.50
2022-10-22T02:41:18.943Z,13.60
2022-10-22T02:43:53.847Z,13.00
2022-10-22T02:46:22.252Z,12.90
2022-10-22T02:48:50.309Z,13.30
2022-10-22T02:51:18.263Z,12.80
2022-10-22T02:53:46.249Z,14.00
2022-10-22T02:56:14.702Z,12.90
2022-10-22T02:58:42.679Z,12.30
2022-10-22T03:01:13.765Z,12.40
2022-10-22T03:03:44.138Z,12.40
2022-10-22T03:06:12.746Z,13.00
2022-10-22T03:08:41.255Z,12.20
2022-10-22T03:11:09.242Z,12.90
2022-10-22T03:13:37.520Z,12.50
2022-10-22T03:16:06.431Z,12.90
2022-10-22T03:18:34.773Z,13.10
2022-10-22T03:21:14.694Z,12.10
2022-10-22T03:23:43.735Z,11.40
2022-10-22T03:26:14.199Z,12.60
2022-10-22T03:28:42.899Z,13.10
2022-10-22T03:31:11.018Z,11.30
2022-10-22T03:33:39.011Z,12.00
2022-10-22T03:36:08.490Z,11.50
2022-10-22T03:38:41.159Z,11.20
2022-10-22T03:41:10.347Z,12.10
2022-10-22T03:43:39.231Z,12.10
2022-10-22T03:46:07.848Z,12.10
2022-10-22T03:48:35.854Z,11.70
2022-10-22T03:51:04.826Z,12.00
2022-10-22T03:53:33.068Z,12.50
2022-10-22T03:56:00.933Z,11.50
2022-10-22T03:58:28.894Z,11.20
2022-10-22T04:00:56.864Z,11.00
2022-10-22T04:03:25.154Z,11.30
2022-10-22T04:05:53.312Z,11.30
2022-10-22T04:08:21.287Z,11.00
2022-10-22T04:10:52.406Z,11.00
2022-10-22T04:13:20.389Z,11.50
2022-10-22T04:15:48.281Z,12.10
2022-10-22T04:18:16.514Z,11.80
2022-10-22T04:20:44.670Z,10.90
2022-10-22T04:23:13.597Z,10.20
2022-10-22T04:25:41.455Z,11.50
2022-10-22T04:28:10.811Z,11.10
2022-10-22T04:30:38.725Z,11.10
2022-10-22T04:33:06.721Z,10.60
2022-10-22T04:35:38.823Z,10.50
2022-10-22T04:38:06.793Z,11.50
2022-10-22T04:40:34.769Z,11.00
2022-10-22T04:43:02.730Z,10.20
2022-10-22T04:45:31.071Z,10.10
2022-10-22T04:47:58.916Z,11.30
2022-10-22T04:50:27.003Z,9.70
2022-10-22T04:52:55.034Z,11.70
2022-10-22T04:55:23.025Z,11.60
2022-10-22T04:57:51.014Z,11.30
2022-10-22T05:00:19.115Z,10.70
2022-10-22T05:02:51.139Z,11.50
2022-10-22T05:05:19.554Z,10.70
2022-10-22T05:07:47.530Z,11.60
2022-10-22T05:10:15.507Z,10.40
2022-10-22T05:12:43.461Z,11.30
2022-10-22T05:15:11.544Z,10.80
2022-10-22T05:17:39.762Z,11.00
2022-10-22T05:20:09.331Z,10.60
2022-10-22T05:22:37.402Z,10.30
2022-10-22T05:25:05.767Z,10.30
2022-10-22T05:27:33.797Z,9.90
2022-10-22T05:30:01.817Z,10.80
2022-10-22T05:32:29.655Z,10.70
2022-10-22T05:34:57.852Z,10.20
2022-10-22T05:37:25.828Z,10.50
2022-10-22T05:40:01.809Z,10.50
2022-10-22T05:42:40.986Z,11.40
2022-10-22T05:45:09.586Z,10.40
2022-10-22T05:47:37.465Z,9.90
2022-10-22T05:50:05.981Z,10.10
2022-10-22T05:52:33.944Z,9.80
2022-10-22T05:55:02.132Z,9.20
2022-10-22T05:57:30.099Z,10.40
2022-10-22T05:59:58.079Z,10.60
2022-10-22T06:02:26.037Z,10.60
2022-10-22T06:04:54.013Z,10.20
2022-10-22T06:07:23.216Z,9.40
2022-10-22T06:09:51.287Z,10.00
2022-10-22T06:12:19.918Z,9.30
2022-10-22T06:14:47.848Z,10.10
2022-10-22T06:17:16.054Z,9.60
2022-10-22T06:19:43.994Z,10.10
2022-10-22T06:22:11.907Z,9.80
2022-10-22T06:24:41.639Z,9.70
2022-10-22T06:27:13.013Z,9.40
2022-10-22T06:29:41.188Z,9.40
2022-10-22T06:32:09.140Z,10.10
2022-10-22T06:34:37.263Z,9.40
2022-10-22T06:37:05.208Z,9.50
2022-10-22T06:39:33.169Z,9.70
2022-10-22T06:42:01.503Z,9.60
2022-10-22T06:44:29.479Z,9.80
2022-10-22T06:46:57.466Z,9.10
2022-10-22T06:49:25.471Z,9.20
2022-10-22T06:51:54.520Z,8.80
2022-10-22T06:54:23.535Z,9.30
2022-10-22T06:56:51.711Z,10.90
2022-10-22T06:59:19.642Z,12.40
2022-10-22T07:01:47.687Z,12.00
2022-10-22T07:04:15.739Z,12.20
2022-10-22T07:06:43.721Z,11.90
2022-10-22T07:09:11.883Z,11.00
2022-10-22T07:11:45.729Z,10.20
2022-10-22T07:14:14.944Z,11.10
2022-10-22T07:16:42.899Z,10.30
2022-10-22T07:19:10.964Z,11.20
2022-10-22T07:21:39.044Z,12.10
2022-10-22T07:24:07.258Z,13.40
2022-10-22T07:26:35.444Z,13.70
2022-10-22T07:29:03.856Z,13.00
2022-10-22T07:31:31.986Z,13.40
2022-10-22T07:34:00.131Z,12.30
2022-10-22T07:36:28.111Z,12.40
2022-10-22T07:38:58.214Z,12.10
2022-10-22T07:41:28.150Z,11.90
2022-10-22T07:43:57.493Z,11.20
2022-10-22T07:46:27.004Z,11.00
2022-10-22T07:48:55.229Z,11.40
2022-10-22T07:51:23.196Z,10.30
2022-10-22T07:53:51.146Z,10.90
2022-10-22T07:56:19.549Z,10.90
2022-10-22T07:58:47.637Z,11.30
2022-10-22T08:01:15.632Z,11.00
2022-10-22T08:03:44.571Z,10.40
2022-10-22T08:06:15.975Z,9.70
2022-10-22T08:08:44.777Z,10.60
2022-10-22T08:11:13.126Z,11.70
2022-10-22T08:13:45.044Z,11.10
2022-10-22T08:16:14.831Z,12.00
2022-10-22T08:18:43.006Z,12.60
2022-10-22T08:21:12.594Z,12.60
2022-10-22T08:23:40.665Z,12.20
2022-10-22T08:26:09.279Z,16.90
2022-10-22T08:28:37.865Z,16.60
2022-10-22T08:31:07.739Z,14.20
2022-10-22T08:33:36.026Z,15.80
2022-10-22T08:36:05.498Z,15.30
2022-10-22T08:38:33.612Z,16.20
2022-10-22T08:41:12.175Z,16.40
2022-10-22T08:44:17.042Z,15.80
2022-10-22T08:47:24.366Z,17.20
2022-10-22T08:49:54.718Z,19.10
2022-10-22T08:52:22.670Z,20.20
2022-10-22T08:54:58.976Z,21.30
2022-10-22T08:58:11.834Z,21.50
2022-10-22T09:00:52.572Z,20.70
2022-10-22T09:03:56.943Z,23.00
2022-10-22T09:06:28.465Z,24.20
2022-10-22T09:08:58.713Z,25.20
2022-10-22T09:11:28.815Z,22.90
2022-10-22T09:13:57.604Z,23.10
2022-10-22T09:16:53.044Z,22.00
2022-10-22T09:19:36.079Z,21.60
2022-10-22T09:22:18.864Z,21.10
2022-10-22T09:24:49.397Z,20.60
2022-10-22T09:27:26.448Z,20.70
2022-10-22T09:29:54.558Z,20.40
2022-10-22T09:32:23.434Z,21.00
2022-10-22T09:34:57.203Z,20.60
2022-10-22T09:37:28.462Z,20.00
2022-10-22T09:39:57.810Z,19.70
2022-10-22T09:42:25.884Z,20.10
2022-10-22T09:44:57.978Z,17.90
2022-10-22T09:48:00.927Z,16.30
2022-10-22T09:50:43.099Z,12.80
2022-10-22T09:53:28.932Z,10.40
2022-10-22T09:56:00.900Z,9.00
2022-10-22T09:58:28.818Z,9.20
2022-10-22T10:00:59.266Z,8.90
2022-10-22T10:03:32.205Z,9.30
2022-10-22T10:06:04.978Z,9.20
2022-10-22T10:08:34.798Z,9.10
2022-10-22T10:11:11.863Z,8.60
2022-10-22T10:13:39.795Z,8.70
2022-10-22T10:16:40.732Z,10.30
2022-10-22T10:19:15.256Z,9.00
2022-10-22T10:22:29.753Z,9.90
2022-10-22T10:25:39.619Z,9.20
2022-10-22T10:28:39.826Z,9.00
2022-10-22T10:31:19.886Z,8.20
2022-10-22T10:33:53.971Z,8.30
2022-10-22T10:36:55.120Z,8.50
2022-10-22T10:39:48.879Z,8.40
2022-10-22T10:42:41.955Z,8.70
2022-10-22T10:45:50.333Z,9.00
2022-10-22T10:48:38.864Z,9.80
2022-10-22T10:51:30.271Z,9.60
2022-10-22T10:53:58.454Z,9.20
2022-10-22T10:56:35.609Z,9.40
2022-10-22T10:59:18.138Z,8.90
2022-10-22T11:01:51.878Z,9.40
2022-10-22T11:04:47.755Z,9.10
2022-10-22T11:07:34.096Z,8.80
2022-10-22T11:10:14.178Z,9.40
2022-10-22T11:12:45.917Z,9.70
2022-10-22T11:15:35.750Z,8.80
2022-10-22T11:18:20.311Z,9.10
2022-10-22T11:21:10.354Z,8.60
2022-10-22T11:23:48.505Z,9.30
2022-10-22T11:26:34.444Z,9.90
2022-10-22T11:29:06.106Z,9.80
2022-10-22T11:31:34.587Z,9.70
2022-10-22T11:34:31.992Z,10.00
2022-10-22T11:37:00.108Z,10.50
2022-10-22T11:39:46.507Z,10.30
2022-10-22T11:42:21.138Z,9.50
2022-10-22T11:44:59.975Z,10.30
2022-10-22T11:47:33.852Z,10.70
2022-10-22T11:50:19.252Z,9.20
2022-10-22T11:53:17.295Z,10.20
2022-10-22T11:55:47.716Z,10.10
2022-10-22T11:58:37.389Z,9.60
2022-10-22T12:01:08.434Z,9.60
2022-10-22T12:03:59.222Z,9.20
2022-10-22T12:06:28.224Z,9.80
2022-10-22T12:09:03.065Z,8.90
2022-10-22T12:11:39.811Z,8.70
2022-10-22T12:14:26.323Z,9.10
2022-10-22T12:17:02.889Z,9.10
2022-10-22T12:20:11.399Z,10.10
2022-10-22T12:22:40.386Z,10.20
2022-10-22T12:25:34.789Z,10.50
2022-10-22T12:28:04.584Z,10.40
2022-10-22T12:30:36.848Z,9.60
2022-10-22T12:33:07.973Z,10.30
2022-10-22T12:35:44.372Z,9.60
2022-10-22T12:38:23.692Z,9.70
2022-10-22T12:40:56.826Z,10.30
2022-10-22T12:43:28.130Z,9.80
2022-10-22T12:45:59.017Z,9.80
2022-10-22T12:48:32.642Z,10.20
2022-10-22T12:51:04.335Z,9.10
2022-10-22T12:53:35.786Z,9.60
2022-10-22T12:56:12.493Z,10.50
2022-10-22T12:58:52.096Z,8.80
2022-10-22T13:01:20.274Z,9.90
2022-10-22T13:03:51.396Z,9.50
2022-10-22T13:06:19.297Z,9.80
2022-10-22T13:08:59.750Z,9.50
2022-10-22T13:11:42.840Z,10.50
2022-10-22T13:14:21.325Z,9.30
2022-10-22T13:17:12.799Z,11.00
2022-10-22T13:19:52.948Z,9.60
2022-10-22T13:22:25.420Z,11.10
2022-10-22T13:24:53.957Z,11.40
2022-10-22T13:27:23.877Z,11.10
2022-10-22T13:29:51.869Z,10.00
2022-10-22T13:32:40.440Z,11.30
2022-10-22T13:35:16.192Z,11.30
2022-10-22T13:37:44.358Z,11.10
2022-10-22T13:40:13.570Z,10.30
2022-10-22T13:42:41.739Z,11.80
2022-10-22T13:45:10.660Z,10.70
2022-10-22T13:47:38.723Z,10.30
2022-10-22T13:50:18.194Z,11.60
2022-10-22T13:52:50.329Z,11.60
2022-10-22T13:55:23.826Z,10.50
2022-10-22T13:57:55.588Z,10.70
2022-10-22T14:00:26.496Z,11.30
2022-10-22T14:02:58.451Z,11.10
2022-10-22T14:05:26.770Z,11.80
2022-10-22T14:07:54.750Z,10.90
2022-10-22T14:10:24.913Z,9.90
2022-10-22T14:12:53.690Z,11.00
2022-10-22T14:15:24.090Z,11.00
2022-10-22T14:17:56.881Z,11.70
2022-10-22T14:20:31.193Z,11.20
2022-10-22T14:23:27.305Z,10.60
2022-10-22T14:25:56.668Z,10.70
2022-10-22T14:28:25.014Z,10.90
2022-10-22T14:30:55.844Z,10.00
2022-10-22T14:33:30.554Z,10.00
2022-10-22T14:36:00.808Z,9.20
2022-10-22T14:38:29.687Z,9.90
2022-10-22T14:40:59.642Z,9.70
2022-10-22T14:43:30.235Z,10.30
2022-10-22T14:45:58.613Z,9.30
2022-10-22T14:48:26.691Z,8.80
2022-10-22T14:50:55.178Z,8.90
2022-10-22T14:53:23.251Z,8.70
2022-10-22T14:55:51.225Z,9.20
2022-10-22T14:58:19.303Z,9.10
2022-10-22T15:00:47.305Z,8.40
2022-10-22T15:03:15.351Z,9.10
2022-10-22T15:05:45.027Z,8.10
2022-10-22T15:08:14.784Z,8.90
2022-10-22T15:10:43.059Z,9.30
2022-10-22T15:13:11.404Z,8.50
2022-10-22T15:15:42.486Z,8.60
2022-10-22T15:18:10.404Z,8.10
2022-10-22T15:20:38.451Z,8.20
2022-10-22T15:23:06.315Z,8.90
2022-10-22T15:25:34.384Z,9.50
2022-10-22T15:28:09.442Z,9.50
2022-10-22T15:30:38.031Z,8.60
2022-10-22T15:33:06.590Z,9.50
2022-10-22T15:35:34.671Z,9.70
2022-10-22T15:38:02.945Z,8.40
2022-10-22T15:40:31.330Z,9.70
2022-10-22T15:42:59.406Z,9.00
2022-10-22T15:45:27.275Z,9.10
2022-10-22T15:47:55.353Z,9.30
2022-10-22T15:50:23.327Z,10.00
2022-10-22T15:52:51.230Z,8.80
2022-10-22T15:55:19.274Z,9.20
2022-10-22T15:57:47.559Z,10.20
2022-10-22T16:00:15.944Z,9.70
2022-10-22T16:02:44.524Z,10.50
2022-10-22T16:05:12.606Z,9.10
2022-10-22T16:07:40.823Z,9.10
2022-10-22T16:10:09.684Z,9.70
2022-10-22T16:12:37.750Z,9.90
2022-10-22T16:15:06.377Z,9.40
2022-10-22T16:17:34.319Z,10.60
2022-10-22T16:20:02.490Z,11.50
2022-10-22T16:22:30.520Z,10.00
2022-10-22T16:24:58.590Z,9.80
2022-10-22T16:27:26.517Z,10.40
2022-10-22T16:29:54.486Z,10.20
2022-10-22T16:32:22.871Z,10.70
2022-10-22T16:34:50.688Z,10.70
2022-10-22T16:37:18.721Z,10.90
2022-10-22T16:39:46.794Z,11.70
2022-10-22T16:42:14.765Z,10.60
2022-10-22T16:44:43.050Z,10.80
2022-10-22T16:47:11.122Z,13.00
2022-10-22T16:49:39.197Z,12.80
2022-10-22T16:52:07.581Z,12.40
2022-10-22T16:54:35.558Z,12.20
2022-10-22T16:57:03.527Z,12.00
2022-10-22T16:59:31.501Z,12.90
2022-10-22T17:01:59.617Z,12.90
2022-10-22T17:04:27.652Z,12.70
2022-10-22T17:06:55.956Z,12.80
2022-10-22T17:09:24.322Z,12.80
2022-10-22T17:11:52.699Z,12.40
2022-10-22T17:14:21.490Z,12.30
2022-10-22T17:16:49.568Z,12.90
2022-10-22T17:19:17.849Z,12.70
2022-10-22T17:21:46.518Z,12.70
2022-10-22T17:24:15.233Z,14.40
2022-10-22T17:26:43.713Z,13.00
2022-10-22T17:29:13.328Z,12.30
2022-10-22T17:31:41.813Z,13.50
2022-10-22T17:34:15.311Z,12.40
2022-10-22T17:36:44.358Z,11.20
2022-10-22T17:39:17.437Z,12.90
2022-10-22T17:41:45.533Z,11.70
2022-10-22T17:44:13.754Z,12.70
2022-10-22T17:46:41.629Z,12.70
2022-10-22T17:49:19.248Z,12.80
2022-10-22T17:51:47.910Z,13.30
2022-10-22T17:54:16.089Z,14.40
2022-10-22T17:56:44.161Z,13.30
2022-10-22T17:59:14.837Z,13.40
2022-10-22T18:01:43.122Z,13.30
2022-10-22T18:04:15.376Z,13.10
2022-10-22T18:06:43.363Z,13.20
2022-10-22T18:09:14.434Z,12.90
2022-10-22T18:11:45.481Z,14.10
2022-10-22T18:14:13.489Z,13.20
2022-10-22T18:16:41.461Z,13.40
2022-10-22T18:19:10.150Z,14.10
2022-10-22T18:21:38.132Z,16.30
2022-10-22T18:24:06.609Z,16.30
2022-10-22T18:26:34.688Z,16.00
2022-10-22T18:29:02.862Z,16.60
2022-10-22T18:31:30.836Z,16.20
2022-10-22T18:33:59.326Z,17.30
2022-10-22T18:36:28.215Z,17.40
2022-10-22T18:38:58.803Z,16.00
2022-10-22T18:41:28.563Z,17.40
2022-10-22T18:43:59.301Z,16.60
2022-10-22T18:46:28.921Z,17.60
2022-10-22T18:48:58.535Z,15.80
2022-10-22T18:51:29.056Z,16.10
2022-10-22T18:54:05.310Z,17.40
2022-10-22T18:56:40.356Z,17.20
2022-10-22T18:59:23.270Z,15.70
2022-10-22T19:01:56.561Z,16.60
2022-10-22T19:04:24.426Z,16.40
2022-10-22T19:06:52.509Z,16.90
2022-10-22T19:09:24.271Z,16.30
2022-10-22T19:11:52.347Z,18.00
2022-10-22T19:14:20.318Z,16.10
2022-10-22T19:16:49.625Z,17.30
2022-10-22T19:19:19.722Z,18.70
2022-10-22T19:21:48.909Z,17.60
2022-10-22T19:24:19.090Z,18.10
2022-10-22T19:26:48.581Z,18.10
2022-10-22T19:29:18.986Z,18.20
2022-10-22T19:31:47.700Z,18.00
2022-10-22T19:34:16.079Z,17.80
2022-10-22T19:36:43.952Z,16.90
2022-10-22T19:39:15.656Z,19.30
2022-10-22T19:41:43.888Z,17.50
2022-10-22T19:44:11.877Z,18.70
2022-10-22T19:46:39.836Z,18.20
2022-10-22T19:49:07.813Z,18.40
2022-10-22T19:51:35.774Z,18.50
2022-10-22T19:54:06.323Z,17.10
2022-10-22T19:56:36.212Z,18.60
2022-10-22T19:59:05.746Z,18.70
2022-10-22T20:01:33.768Z,18.10
2022-10-22T20:04:01.909Z,17.10
2022-10-22T20:06:30.994Z,17.60
2022-10-22T20:08:58.912Z,16.90
2022-10-22T20:11:30.038Z,17.30
2022-10-22T20:13:58.908Z,17.00
2022-10-22T20:16:29.342Z,16.40
2022-10-22T20:19:02.631Z,15.90
2022-10-22T20:21:31.257Z,15.40
2022-10-22T20:24:00.070Z,15.70
2022-10-22T20:26:28.806Z,16.60
2022-10-22T20:28:58.010Z,17.80
2022-10-22T20:31:28.934Z,17.50
2022-10-22T20:33:58.465Z,18.20
2022-10-22T20:36:28.303Z,18.80
2022-10-22T20:39:02.488Z,16.70
2022-10-22T20:41:30.473Z,17.00
2022-10-22T20:43:58.419Z,17.40
2022-10-22T20:46:35.319Z,16.60
2022-10-22T20:49:09.635Z,14.80
2022-10-22T20:51:38.217Z,15.20
2022-10-22T20:54:07.691Z,15.00
2022-10-22T20:56:38.193Z,15.40
2022-10-22T20:59:07.438Z,14.80
2022-10-22T21:02:02.245Z,15.30
2022-10-22T21:04:30.763Z,14.80
2022-10-22T21:06:58.705Z,14.70
2022-10-22T21:09:27.122Z,14.40
2022-10-22T21:11:55.203Z,13.90
2022-10-22T21:14:23.341Z,14.80
2022-10-22T21:16:51.786Z,16.00
2022-10-22T21:19:21.027Z,16.10
2022-10-22T21:21:49.732Z,14.70
2022-10-22T21:24:18.203Z,15.90
2022-10-22T21:26:46.095Z,16.70
2022-10-22T21:29:14.762Z,16.80
2022-10-22T21:31:43.945Z,16.20
2022-10-22T21:34:13.019Z,16.50
2022-10-22T21:36:41.519Z,15.80
2022-10-22T21:39:09.656Z,14.80
2022-10-22T21:41:38.013Z,14.40
2022-10-22T21:44:06.594Z,14.90
2022-10-22T21:46:35.276Z,14.40
2022-10-22T21:49:04.351Z,14.30
2022-10-22T21:51:34.610Z,14.80
2022-10-22T21:54:02.707Z,14.50
2022-10-22T21:56:35.270Z,14.80
2022-10-22T21:59:05.572Z,15.10
2022-10-22T22:01:33.918Z,14.90
2022-10-22T22:04:02.771Z,16.20
2022-10-22T22:06:33.445Z,15.60
2022-10-22T22:09:04.139Z,16.10
2022-10-22T22:11:32.925Z,16.30
2022-10-22T22:14:00.802Z,15.80
2022-10-22T22:16:32.795Z,16.80
2022-10-22T22:21:40.276Z,15.30
2022-10-22T22:24:10.922Z,15.50
2022-10-22T22:26:40.071Z,15.00
2022-10-22T22:29:08.083Z,14.50
2022-10-22T22:31:37.026Z,14.40
2022-10-22T22:34:08.406Z,14.70
2022-10-22T22:36:40.401Z,14.30
2022-10-22T22:39:12.672Z,15.30
2022-10-22T22:41:41.607Z,15.70
2022-10-22T22:44:10.154Z,14.50
2022-10-22T22:46:38.434Z,14.30
2022-10-22T22:49:06.923Z,15.10
2022-10-22T22:51:35.140Z,16.20
2022-10-22T22:54:03.482Z,15.20
2022-10-22T22:56:32.890Z,14.40
2022-10-22T22:59:01.741Z,14.80
2022-10-22T23:01:39.716Z,14.80
2022-10-22T23:04:12.710Z,14.10
2022-10-22T23:06:40.953Z,14.10
2022-10-22T23:09:11.884Z,15.10
2022-10-22T23:11:42.016Z,14.20
2022-10-22T23:14:12.974Z,14.20
2022-10-22T23:16:43.546Z,14.10
2022-10-22T23:19:15.902Z,14.70
2022-10-22T23:21:50.180Z,13.70
2022-10-22T23:24:21.621Z,13.50
2022-10-22T23:26:52.167Z,14.20
2022-10-22T23:29:25.503Z,13.70
2022-10-22T23:31:54.253Z,14.10
2022-10-22T23:34:25.195Z,14.20
2022-10-22T23:36:54.791Z,13.90
2022-10-22T23:39:26.199Z,14.90
2022-10-22T23:41:54.846Z,14.40
2022-10-22T23:44:24.251Z,14.80
2022-10-22T23:46:52.532Z,14.30
2022-10-22T23:49:20.548Z,14.20
2022-10-22T23:51:48.481Z,13.30
2022-10-22T23:54:17.797Z,14.10
2022-10-22T23:56:45.858Z,14.80
